createdAt,value
2023-02-28T00:01:33.595Z,10.68
2023-02-28T00:04:01.263Z,9.25
2023-02-28T00:06:29.000Z,11.63
2023-02-28T00:08:56.462Z,10.90
2023-02-28T00:11:24.317Z,8.18
2023-02-28T00:13:51.514Z,10.90
2023-02-28T00:16:23.699Z,7.85
2023-02-28T00:18:52.086Z,12.13
2023-02-28T00:21:21.198Z,8.68
2023-02-28T00:23:48.890Z,9.40
2023-02-28T00:26:16.258Z,7.38
2023-02-28T00:28:46.337Z,7.97
2023-02-28T00:31:13.771Z,7.13
2023-02-28T00:33:41.053Z,8.23
2023-02-28T00:36:12.618Z,9.18
2023-02-28T00:38:41.399Z,9.88
2023-02-28T00:41:09.622Z,10.50
2023-02-28T00:43:39.981Z,10.65
2023-02-28T00:46:08.576Z,13.65
2023-02-28T00:48:36.466Z,7.88
2023-02-28T00:51:05.017Z,9.10
2023-02-28T00:53:33.603Z,9.35
2023-02-28T00:56:01.637Z,8.40
2023-02-28T00:58:29.706Z,10.20
2023-02-28T01:00:57.226Z,9.30
2023-02-28T01:03:24.783Z,8.32
2023-02-28T01:05:54.127Z,9.18
2023-02-28T01:08:21.843Z,9.98
2023-02-28T01:10:49.319Z,10.18
2023-02-28T01:13:17.365Z,11.35
2023-02-28T01:15:53.332Z,11.45
2023-02-28T01:18:21.872Z,7.47
2023-02-28T01:20:50.028Z,10.40
2023-02-28T01:23:17.510Z,10.15
2023-02-28T01:25:44.765Z,11.02
2023-02-28T01:28:12.023Z,11.93
2023-02-28T01:30:39.256Z,8.50
2023-02-28T01:33:07.189Z,8.80
2023-02-28T01:35:38.099Z,9.57
2023-02-28T01:38:20.984Z,8.25
2023-02-28T01:40:49.260Z,10.68
2023-02-28T01:43:30.631Z,11.70
2023-02-28T01:46:00.005Z,11.20
2023-02-28T01:48:38.103Z,9.77
2023-02-28T01:51:18.464Z,11.27
2023-02-28T01:53:53.465Z,10.20
2023-02-28T01:56:30.430Z,10.75
2023-02-28T01:58:57.966Z,9.32
2023-02-28T02:01:28.774Z,11.52
2023-02-28T02:04:01.252Z,11.02
2023-02-28T02:06:41.477Z,9.57
2023-02-28T02:09:12.809Z,11.65
2023-02-28T02:11:44.506Z,8.40
2023-02-28T02:15:08.858Z,8.38
2023-02-28T02:17:45.445Z,7.47
2023-02-28T02:20:48.888Z,9.32
2023-02-28T02:24:28.761Z,10.00
2023-02-28T02:27:27.274Z,9.80
2023-02-28T02:30:16.483Z,10.63
2023-02-28T02:33:25.625Z,10.68
2023-02-28T02:36:00.317Z,11.38
2023-02-28T02:39:00.167Z,10.23
2023-02-28T02:41:35.624Z,8.40
2023-02-28T02:44:39.673Z,11.30
2023-02-28T02:47:16.417Z,10.55
2023-02-28T02:49:52.774Z,10.20
2023-02-28T02:52:32.656Z,10.95
2023-02-28T02:55:02.513Z,9.88
2023-02-28T02:57:44.331Z,10.95
2023-02-28T03:00:13.532Z,11.55
2023-02-28T03:02:42.294Z,10.68
2023-02-28T03:05:27.931Z,10.85
2023-02-28T03:07:56.241Z,9.05
2023-02-28T03:10:39.076Z,11.02
2023-02-28T03:13:46.580Z,14.50
2023-02-28T03:17:10.401Z,10.40
2023-02-28T03:20:18.325Z,13.18
2023-02-28T03:23:05.663Z,10.38
2023-02-28T03:25:50.700Z,13.38
2023-02-28T03:28:49.551Z,10.13
2023-02-28T03:31:38.935Z,10.23
2023-02-28T03:34:20.571Z,10.32
2023-02-28T03:36:55.357Z,9.52
2023-02-28T03:39:35.350Z,11.40
2023-02-28T03:42:37.041Z,8.23
2023-02-28T03:45:27.207Z,10.43
2023-02-28T03:49:10.990Z,9.13
2023-02-28T03:51:42.499Z,10.52
2023-02-28T03:54:21.972Z,8.88
2023-02-28T03:57:05.519Z,8.70
2023-02-28T03:59:44.418Z,8.70
2023-02-28T04:02:11.776Z,11.95
2023-02-28T04:04:39.195Z,9.13
2023-02-28T04:07:09.712Z,12.27
2023-02-28T04:09:37.052Z,8.65
2023-02-28T04:12:05.105Z,12.05
2023-02-28T04:14:32.316Z,10.13
2023-02-28T04:16:59.574Z,10.77
2023-02-28T04:19:27.009Z,10.93
2023-02-28T04:21:55.193Z,15.30
2023-02-28T04:24:27.291Z,10.68
2023-02-28T04:26:57.923Z,9.90
2023-02-28T04:29:28.398Z,8.13
2023-02-28T04:32:00.520Z,9.38
2023-02-28T04:34:31.525Z,11.10
2023-02-28T04:37:12.436Z,8.55
2023-02-28T04:39:42.144Z,10.73
2023-02-28T04:42:10.377Z,9.35
2023-02-28T04:44:37.535Z,9.63
2023-02-28T04:47:04.798Z,12.60
2023-02-28T04:49:32.177Z,11.63
2023-02-28T04:51:59.435Z,11.20
2023-02-28T04:54:26.881Z,10.00
2023-02-28T04:56:54.036Z,10.52
2023-02-28T04:59:21.433Z,10.57
2023-02-28T05:01:50.241Z,9.32
2023-02-28T05:04:18.063Z,10.40
2023-02-28T05:06:45.825Z,11.23
2023-02-28T05:09:13.030Z,12.95
2023-02-28T05:11:40.826Z,12.05
2023-02-28T05:14:15.240Z,9.80
2023-02-28T05:16:42.973Z,10.02
2023-02-28T05:19:10.288Z,12.18
2023-02-28T05:21:51.278Z,10.55
2023-02-28T05:24:23.526Z,10.63
2023-02-28T05:26:53.882Z,10.23
2023-02-28T05:29:21.570Z,12.35
2023-02-28T05:31:49.481Z,13.57
2023-02-28T05:34:18.044Z,11.10
2023-02-28T05:36:45.492Z,12.45
2023-02-28T05:39:13.931Z,13.93
2023-02-28T05:41:43.492Z,10.15
2023-02-28T05:44:11.258Z,10.82
2023-02-28T05:46:39.181Z,11.45
2023-02-28T05:49:06.476Z,12.30
2023-02-28T05:51:36.358Z,11.02
2023-02-28T05:54:03.977Z,11.57
2023-02-28T05:56:31.225Z,11.85
2023-02-28T05:58:58.708Z,10.30
2023-02-28T06:01:35.547Z,12.35
2023-02-28T06:04:06.880Z,13.52
2023-02-28T06:06:37.970Z,13.77
2023-02-28T06:09:06.448Z,13.88
2023-02-28T06:11:34.238Z,12.82
2023-02-28T06:14:02.811Z,14.73
2023-02-28T06:16:32.430Z,12.80
2023-02-28T06:19:03.866Z,13.68
2023-02-28T06:21:31.840Z,14.48
2023-02-28T06:24:00.049Z,13.63
2023-02-28T06:26:27.771Z,12.02
2023-02-28T06:28:55.587Z,16.15
2023-02-28T06:31:24.195Z,15.27
2023-02-28T06:33:51.569Z,15.98
2023-02-28T06:36:20.036Z,14.13
2023-02-28T06:38:52.208Z,16.23
2023-02-28T06:41:19.491Z,12.57
2023-02-28T06:43:47.000Z,13.60
2023-02-28T06:46:15.464Z,15.40
2023-02-28T06:48:45.699Z,13.75
2023-02-28T06:51:21.154Z,14.32
2023-02-28T06:53:48.654Z,16.63
2023-02-28T06:56:21.228Z,15.27
2023-02-28T06:58:51.237Z,15.15
2023-02-28T07:01:19.849Z,12.55
2023-02-28T07:03:47.980Z,12.73
2023-02-28T07:06:15.153Z,15.85
2023-02-28T07:08:42.325Z,13.75
2023-02-28T07:11:09.719Z,13.20
2023-02-28T07:13:37.643Z,15.25
2023-02-28T07:16:10.040Z,16.88
2023-02-28T07:18:38.861Z,15.93
2023-02-28T07:21:12.948Z,16.92
2023-02-28T07:23:40.977Z,15.35
2023-02-28T07:26:15.571Z,13.70
2023-02-28T07:28:46.263Z,14.63
2023-02-28T07:31:18.053Z,22.30
2023-02-28T07:33:45.419Z,13.93
2023-02-28T07:36:18.301Z,13.43
2023-02-28T07:38:51.408Z,16.67
2023-02-28T07:41:22.852Z,16.08
2023-02-28T07:43:50.401Z,16.25
2023-02-28T07:46:18.599Z,12.45
2023-02-28T07:48:46.244Z,12.73
2023-02-28T07:51:13.730Z,11.35
2023-02-28T07:53:41.558Z,16.17
2023-02-28T07:56:08.959Z,18.83
2023-02-28T07:58:36.337Z,15.55
2023-02-28T08:01:11.960Z,13.57
2023-02-28T08:03:40.819Z,13.55
2023-02-28T08:06:17.078Z,16.30
2023-02-28T08:08:45.381Z,15.57
2023-02-28T08:11:12.606Z,15.27
2023-02-28T08:13:39.931Z,11.57
2023-02-28T08:16:07.570Z,15.95
2023-02-28T08:18:34.988Z,16.48
2023-02-28T08:21:09.089Z,13.77
2023-02-28T08:23:36.922Z,14.55
2023-02-28T08:26:05.021Z,14.88
2023-02-28T08:28:32.493Z,15.23
2023-02-28T08:31:00.174Z,12.25
2023-02-28T08:33:28.680Z,14.57
2023-02-28T08:35:57.298Z,14.18
2023-02-28T08:38:25.186Z,15.25
2023-02-28T08:41:01.127Z,13.68
2023-02-28T08:43:29.736Z,16.48
2023-02-28T08:46:00.419Z,18.75
2023-02-28T08:48:31.922Z,13.63
2023-02-28T08:51:10.215Z,17.33
2023-02-28T08:53:40.638Z,14.60
2023-02-28T08:56:17.655Z,17.25
2023-02-28T08:58:47.446Z,14.45
2023-02-28T09:01:19.956Z,17.75
2023-02-28T09:03:50.579Z,17.27
2023-02-28T09:06:20.872Z,14.82
2023-02-28T09:08:48.692Z,16.60
2023-02-28T09:11:16.932Z,14.77
2023-02-28T09:13:44.300Z,16.02
2023-02-28T09:16:15.563Z,18.02
2023-02-28T09:18:44.182Z,15.95
2023-02-28T09:21:16.564Z,13.82
2023-02-28T09:23:51.078Z,14.95
2023-02-28T09:26:23.571Z,14.20
2023-02-28T09:28:51.843Z,13.52
2023-02-28T09:31:26.873Z,13.70
2023-02-28T09:33:58.057Z,11.60
2023-02-28T09:36:38.058Z,13.18
2023-02-28T09:39:11.045Z,13.13
2023-02-28T09:41:49.452Z,12.68
2023-02-28T09:44:48.723Z,13.75
2023-02-28T09:47:35.036Z,13.00
2023-02-28T09:51:03.964Z,14.30
2023-02-28T09:53:45.737Z,12.63
2023-02-28T09:56:35.672Z,14.05
2023-02-28T09:59:10.835Z,11.88
2023-02-28T10:02:59.135Z,13.15
2023-02-28T10:08:25.961Z,14.88
2023-02-28T10:11:02.532Z,11.77
2023-02-28T10:13:57.013Z,14.77
2023-02-28T10:16:38.491Z,12.77
2023-02-28T10:19:47.424Z,11.70
2023-02-28T10:23:21.228Z,12.23
2023-02-28T10:26:18.306Z,12.82
2023-02-28T10:28:46.395Z,14.45
2023-02-28T10:31:20.640Z,13.10
2023-02-28T10:33:50.050Z,11.45
2023-02-28T10:36:21.976Z,13.43
2023-02-28T10:38:52.324Z,12.68
2023-02-28T10:41:37.055Z,12.48
2023-02-28T10:44:24.324Z,10.68
2023-02-28T10:46:54.857Z,11.70
2023-02-28T10:49:32.577Z,12.77
2023-02-28T10:52:02.355Z,15.90
2023-02-28T10:54:38.705Z,13.68
2023-02-28T10:57:25.402Z,15.02
2023-02-28T11:00:14.807Z,11.98
2023-02-28T11:02:45.453Z,14.90
2023-02-28T11:05:35.477Z,12.25
2023-02-28T11:08:18.333Z,13.75
2023-02-28T11:10:54.646Z,14.30
2023-02-28T11:13:34.754Z,11.60
2023-02-28T11:16:08.272Z,16.92
2023-02-28T11:18:55.631Z,11.40
2023-02-28T11:21:31.360Z,15.13
2023-02-28T11:24:22.236Z,15.57
2023-02-28T11:26:50.108Z,14.52
2023-02-28T11:29:31.163Z,12.63
2023-02-28T11:32:32.368Z,14.07
2023-02-28T11:35:31.961Z,13.15
2023-02-28T11:38:00.064Z,12.80
2023-02-28T11:40:56.599Z,15.25
2023-02-28T11:43:57.434Z,15.93
2023-02-28T11:46:53.083Z,16.33
2023-02-28T11:49:54.618Z,17.30
2023-02-28T11:52:42.989Z,14.43
2023-02-28T11:55:20.892Z,17.48
2023-02-28T11:58:32.460Z,17.70
2023-02-28T12:01:38.961Z,15.77
2023-02-28T12:04:53.418Z,18.48
2023-02-28T12:07:58.440Z,17.35
2023-02-28T12:10:46.249Z,16.42
2023-02-28T12:13:32.916Z,15.15
2023-02-28T12:16:19.647Z,22.40
2023-02-28T12:19:07.627Z,17.48
2023-02-28T12:22:02.000Z,19.00
2023-02-28T12:25:02.205Z,16.48
2023-02-28T12:27:37.992Z,17.40
2023-02-28T12:30:22.757Z,19.20
2023-02-28T12:33:18.855Z,19.85
2023-02-28T12:35:57.937Z,17.98
2023-02-28T12:39:06.014Z,18.73
2023-02-28T12:42:25.765Z,19.38
2023-02-28T12:45:09.780Z,19.40
2023-02-28T12:47:41.724Z,18.23
2023-02-28T12:50:12.447Z,16.90
2023-02-28T12:53:05.016Z,17.70
2023-02-28T12:55:53.716Z,17.35
2023-02-28T12:59:07.233Z,18.73
2023-02-28T13:02:20.919Z,16.92
2023-02-28T13:05:08.662Z,16.48
2023-02-28T13:08:14.706Z,18.17
2023-02-28T13:10:55.245Z,17.33
2023-02-28T13:13:32.664Z,19.27
2023-02-28T13:16:11.188Z,20.50
2023-02-28T13:18:47.891Z,19.30
2023-02-28T13:21:45.919Z,18.25
2023-02-28T13:24:58.688Z,19.88
2023-02-28T13:27:42.813Z,17.27
2023-02-28T13:31:04.805Z,17.73
2023-02-28T13:33:58.082Z,18.17
2023-02-28T13:36:32.541Z,18.88
2023-02-28T13:39:06.297Z,17.63
2023-02-28T13:41:34.309Z,19.42
2023-02-28T13:44:27.759Z,16.50
2023-02-28T13:46:56.712Z,15.70
2023-02-28T13:49:26.380Z,18.83
2023-02-28T13:52:17.773Z,19.75
2023-02-28T13:55:25.862Z,16.65
2023-02-28T13:58:47.952Z,17.85
2023-02-28T14:01:35.807Z,19.73
2023-02-28T14:04:47.019Z,19.83
2023-02-28T14:07:24.590Z,16.52
2023-02-28T14:10:09.120Z,14.55
2023-02-28T14:12:55.720Z,16.25
2023-02-28T14:15:41.271Z,17.38
2023-02-28T14:18:31.799Z,15.98
2023-02-28T14:21:35.212Z,17.83
2023-02-28T14:24:35.388Z,18.98
2023-02-28T14:27:44.029Z,15.63
2023-02-28T14:31:12.585Z,17.52
2023-02-28T14:34:04.446Z,20.98
2023-02-28T14:36:40.692Z,18.20
2023-02-28T14:39:13.561Z,17.33
2023-02-28T14:41:46.178Z,16.92
2023-02-28T14:44:26.331Z,17.13
2023-02-28T14:47:04.808Z,19.35
2023-02-28T14:49:43.975Z,19.70
2023-02-28T14:52:24.307Z,18.73
2023-02-28T14:55:07.987Z,16.65
2023-02-28T14:57:55.310Z,18.95
2023-02-28T15:00:34.022Z,18.23
2023-02-28T15:03:21.952Z,16.58
2023-02-28T15:05:59.274Z,20.77
2023-02-28T15:08:30.009Z,17.00
2023-02-28T15:11:10.123Z,18.80
2023-02-28T15:13:49.436Z,20.95
2023-02-28T15:16:36.915Z,18.23
2023-02-28T15:19:27.074Z,20.38
2023-02-28T15:22:04.031Z,23.55
2023-02-28T15:24:53.310Z,17.77
2023-02-28T15:27:29.018Z,17.27
2023-02-28T15:30:01.830Z,19.42
2023-02-28T15:32:40.636Z,19.35
2023-02-28T15:35:25.699Z,17.85
2023-02-28T15:38:19.010Z,18.65
2023-02-28T15:40:59.217Z,18.83
2023-02-28T15:43:38.731Z,19.77
2023-02-28T15:46:13.200Z,18.50
2023-02-28T15:51:39.096Z,17.55
2023-02-28T15:54:14.011Z,18.63
2023-02-28T15:56:50.479Z,17.88
2023-02-28T15:59:31.375Z,18.70
2023-02-28T16:02:22.019Z,16.77
2023-02-28T16:05:07.317Z,17.25
2023-02-28T16:07:41.981Z,19.58
2023-02-28T16:10:15.047Z,18.23
2023-02-28T16:12:43.115Z,16.00
2023-02-28T16:15:29.807Z,19.02
2023-02-28T16:17:58.479Z,18.33
2023-02-28T16:20:31.579Z,18.73
2023-02-28T16:23:02.354Z,16.98
2023-02-28T16:25:41.625Z,22.63
2023-02-28T16:28:41.394Z,17.67
2023-02-28T16:31:09.021Z,17.70
2023-02-28T16:33:36.262Z,18.77
2023-02-28T16:36:03.948Z,17.73
2023-02-28T16:38:31.119Z,19.80
2023-02-28T16:41:01.073Z,18.77
2023-02-28T16:43:29.048Z,18.10
2023-02-28T16:46:01.443Z,16.45
2023-02-28T16:48:28.933Z,21.92
2023-02-28T16:50:56.113Z,20.17
2023-02-28T16:53:23.289Z,21.27
2023-02-28T16:55:53.080Z,22.45
2023-02-28T16:58:22.638Z,18.90
2023-02-28T17:00:50.143Z,24.90
2023-02-28T17:03:33.283Z,21.48
2023-02-28T17:06:01.906Z,19.85
2023-02-28T17:08:30.411Z,21.92
2023-02-28T17:13:25.198Z,22.27
2023-02-28T17:15:52.573Z,19.52
2023-02-28T17:18:22.081Z,19.83
2023-02-28T17:20:50.299Z,20.50
2023-02-28T17:23:17.603Z,22.48
2023-02-28T17:25:56.381Z,24.05
2023-02-28T17:28:26.163Z,23.70
2023-02-28T17:30:53.477Z,18.92
2023-02-28T17:33:20.945Z,20.33
2023-02-28T17:35:48.356Z,22.13
2023-02-28T17:38:19.919Z,24.02
2023-02-28T17:40:47.296Z,23.50
2023-02-28T17:43:15.761Z,24.48
2023-02-28T17:48:13.852Z,20.95
2023-02-28T17:50:41.234Z,21.95
2023-02-28T17:53:08.657Z,21.67
2023-02-28T17:55:36.428Z,23.23
2023-02-28T17:58:04.708Z,26.30
2023-02-28T18:00:35.219Z,24.30
2023-02-28T18:03:02.670Z,20.02
2023-02-28T18:05:30.986Z,24.15
2023-02-28T18:07:58.528Z,19.80
2023-02-28T18:10:25.718Z,20.80
2023-02-28T18:12:54.898Z,23.35
2023-02-28T18:15:23.361Z,25.33
2023-02-28T18:17:51.734Z,22.40
2023-02-28T18:20:19.839Z,22.77
2023-02-28T18:22:47.488Z,21.92
2023-02-28T18:25:16.969Z,23.38
2023-02-28T18:27:58.123Z,21.25
2023-02-28T18:30:35.719Z,23.27
2023-02-28T18:33:03.417Z,20.48
2023-02-28T18:35:35.196Z,22.13
2023-02-28T18:38:19.839Z,24.63
2023-02-28T18:40:58.094Z,22.98
2023-02-28T18:43:27.894Z,24.05
2023-02-28T18:45:55.531Z,26.17
2023-02-28T18:48:23.665Z,23.15
2023-02-28T18:50:52.174Z,21.92
2023-02-28T18:53:20.310Z,27.27
2023-02-28T18:55:47.646Z,24.70
2023-02-28T18:58:15.324Z,27.50
2023-02-28T19:00:43.911Z,27.73
2023-02-28T19:05:39.912Z,25.13
2023-02-28T19:08:07.109Z,27.10
2023-02-28T19:10:35.197Z,26.10
2023-02-28T19:13:02.458Z,25.30
2023-02-28T19:15:29.935Z,28.27
2023-02-28T19:17:57.199Z,28.88
2023-02-28T19:20:26.678Z,29.85
2023-02-28T19:22:54.116Z,26.20
2023-02-28T19:25:21.438Z,26.35
2023-02-28T19:27:52.018Z,28.60
2023-02-28T19:30:20.609Z,25.35
2023-02-28T19:35:16.846Z,28.20
2023-02-28T19:37:44.091Z,31.85
2023-02-28T19:40:13.796Z,29.75
2023-02-28T19:42:41.074Z,30.17
2023-02-28T19:45:14.687Z,29.20
2023-02-28T19:47:42.505Z,27.88
2023-02-28T19:50:11.873Z,26.35
2023-02-28T19:52:39.086Z,26.23
2023-02-28T19:55:07.056Z,28.58
2023-02-28T19:57:34.387Z,43.92
2023-02-28T20:00:02.222Z,41.50
2023-02-28T20:02:40.912Z,36.50
2023-02-28T20:05:09.686Z,49.42
2023-02-28T20:07:38.245Z,47.78
2023-02-28T20:10:06.440Z,41.67
2023-02-28T20:12:33.725Z,32.28
2023-02-28T20:15:00.981Z,34.45
2023-02-28T20:17:30.622Z,32.17
2023-02-28T20:19:57.985Z,29.05
2023-02-28T20:22:25.364Z,39.00
2023-02-28T20:24:53.949Z,31.10
2023-02-28T20:27:21.598Z,30.60
2023-02-28T20:29:48.887Z,30.40
2023-02-28T20:32:16.167Z,28.40
2023-02-28T20:34:43.604Z,36.00
2023-02-28T20:37:11.446Z,29.67
2023-02-28T20:39:38.748Z,31.60
2023-02-28T20:42:06.178Z,33.83
2023-02-28T20:44:33.461Z,34.70
2023-02-28T20:47:00.850Z,33.05
2023-02-28T20:49:30.432Z,29.85
2023-02-28T20:52:00.111Z,33.25
2023-02-28T20:54:28.693Z,33.25
2023-02-28T20:56:56.924Z,34.42
2023-02-28T20:59:24.282Z,30.55
2023-02-28T21:01:51.920Z,31.60
2023-02-28T21:04:19.228Z,34.20
2023-02-28T21:06:47.624Z,29.95
2023-02-28T21:09:15.988Z,33.60
2023-02-28T21:11:43.715Z,31.88
2023-02-28T21:14:17.725Z,32.30
2023-02-28T21:16:51.239Z,33.00
2023-02-28T21:19:18.742Z,33.20
2023-02-28T21:21:48.038Z,37.58
2023-02-28T21:24:19.705Z,31.17
2023-02-28T21:26:47.727Z,32.88
2023-02-28T21:29:15.641Z,30.63
2023-02-28T21:31:43.802Z,33.35
2023-02-28T21:34:14.293Z,30.77
2023-02-28T21:36:47.411Z,31.63
2023-02-28T21:39:25.953Z,30.10
2023-02-28T21:41:56.808Z,31.35
2023-02-28T21:44:25.712Z,30.67
2023-02-28T21:46:56.792Z,31.67
2023-02-28T21:49:24.211Z,33.88
2023-02-28T21:51:51.517Z,34.65
2023-02-28T21:54:18.738Z,37.13
2023-02-28T21:56:47.338Z,38.85
2023-02-28T21:59:14.525Z,51.00
2023-02-28T22:01:44.473Z,57.42
2023-02-28T22:04:22.417Z,56.88
2023-02-28T22:06:59.092Z,74.93
2023-02-28T22:09:27.561Z,46.40
2023-02-28T22:11:56.256Z,58.83
2023-02-28T22:16:54.170Z,49.92
2023-02-28T22:19:23.754Z,42.95
2023-02-28T22:24:24.097Z,34.70
2023-02-28T22:26:52.558Z,33.35
2023-02-28T22:29:19.783Z,31.65
2023-02-28T22:31:47.078Z,27.55
2023-02-28T22:34:14.463Z,30.85
2023-02-28T22:36:43.566Z,30.73
2023-02-28T22:39:11.591Z,35.30
2023-02-28T22:41:39.300Z,31.45
2023-02-28T22:44:07.396Z,31.67
2023-02-28T22:46:36.405Z,29.45
2023-02-28T22:49:05.623Z,31.58
2023-02-28T22:51:33.649Z,28.42
2023-02-28T22:54:01.955Z,33.05
2023-02-28T22:56:31.023Z,30.67
2023-02-28T22:59:01.643Z,31.98
2023-02-28T23:01:34.328Z,33.90
2023-02-28T23:04:02.793Z,30.38
2023-02-28T23:06:42.066Z,29.70
2023-02-28T23:09:18.154Z,37.20
2023-02-28T23:11:50.335Z,32.17
2023-02-28T23:14:19.969Z,32.03
2023-02-28T23:16:55.455Z,32.22
2023-02-28T23:19:30.889Z,29.30
2023-02-28T23:22:00.425Z,29.73
2023-02-28T23:24:33.268Z,32.72
2023-02-28T23:27:05.415Z,27.13
2023-02-28T23:29:33.746Z,33.85
2023-02-28T23:32:01.074Z,29.25
2023-02-28T23:34:30.369Z,30.20
2023-02-28T23:37:01.045Z,31.98
2023-02-28T23:39:31.213Z,31.33
2023-02-28T23:42:00.213Z,31.17
2023-02-28T23:44:27.541Z,31.05
2023-02-28T23:46:55.559Z,33.00
2023-02-28T23:49:23.385Z,33.28
2023-02-28T23:51:52.199Z,33.95
2023-02-28T23:54:20.074Z,31.45
2023-02-28T23:56:47.547Z,35.70
2023-02-28T23:59:14.804Z,32.53
